createdAt,value
2023-04-05T00:02:24.698Z,94868.06
2023-04-05T00:04:57.775Z,94843.41
2023-04-05T00:07:28.266Z,94862.75
2023-04-05T00:09:56.085Z,94851.09
2023-04-05T00:12:23.988Z,94850.81
2023-04-05T00:14:51.845Z,94857.44
2023-04-05T00:17:19.812Z,94861.09
2023-04-05T00:19:51.650Z,94843.38
2023-04-05T00:22:25.927Z,94845.75
2023-04-05T00:24:55.334Z,94859.56
2023-04-05T00:27:23.164Z,94852.59
2023-04-05T00:29:51.059Z,94849.66
2023-04-05T00:32:19.051Z,94847.28
2023-04-05T00:34:46.955Z,94853.69
2023-04-05T00:37:14.817Z,94855.50
2023-04-05T00:39:42.737Z,94854.97
2023-04-05T00:42:11.990Z,94846.81
2023-04-05T00:44:39.862Z,94865.81
2023-04-05T00:47:08.478Z,94870.59
2023-04-05T00:49:37.747Z,94869.53
2023-04-05T00:52:06.686Z,94815.19
2023-04-05T00:54:35.277Z,94861.06
2023-04-05T00:57:03.479Z,94872.22
2023-04-05T00:59:32.723Z,94861.31
2023-04-05T01:02:05.037Z,94857.44
2023-04-05T01:04:36.725Z,94858.50
2023-04-05T01:07:10.573Z,94825.78
2023-04-05T01:09:46.657Z,94855.50
2023-04-05T01:12:22.212Z,94870.63
2023-04-05T01:14:53.237Z,94869.06
2023-04-05T01:17:23.377Z,94878.53
2023-04-05T01:19:54.418Z,94849.00
2023-04-05T01:22:46.787Z,94874.59
2023-04-05T01:25:34.856Z,94885.75
2023-04-05T01:28:20.302Z,94880.69
2023-04-05T01:30:53.949Z,94885.19
2023-04-05T01:33:27.109Z,94871.13
2023-04-05T01:36:00.998Z,94887.25
2023-04-05T01:38:30.241Z,94882.75
2023-04-05T01:40:58.281Z,94874.53
2023-04-05T01:43:26.109Z,94878.28
2023-04-05T01:45:55.373Z,94873.47
2023-04-05T01:48:23.238Z,94873.47
2023-04-05T01:50:51.045Z,94833.66
2023-04-05T01:53:19.125Z,94875.28
2023-04-05T01:55:47.174Z,94870.06
2023-04-05T01:58:15.008Z,94870.06
2023-04-05T02:00:43.196Z,94878.75
2023-04-05T02:03:12.821Z,94883.53
2023-04-05T02:05:40.756Z,94867.38
2023-04-05T02:08:08.561Z,94834.97
2023-04-05T02:10:36.535Z,94878.19
2023-04-05T02:13:04.434Z,94878.91
2023-04-05T02:15:34.124Z,94839.38
2023-04-05T02:18:02.933Z,94886.66
2023-04-05T02:20:33.008Z,94881.56
2023-04-05T02:23:00.850Z,94885.81
2023-04-05T02:25:28.718Z,94882.38
2023-04-05T02:27:56.552Z,94883.72
2023-04-05T02:30:24.394Z,94886.38
2023-04-05T02:32:52.221Z,94887.97
2023-04-05T02:35:21.371Z,94883.66
2023-04-05T02:37:50.629Z,94874.91
2023-04-05T02:40:18.466Z,94880.84
2023-04-05T02:42:46.322Z,94877.34
2023-04-05T02:45:14.165Z,94881.53
2023-04-05T02:47:42.006Z,94877.81
2023-04-05T02:50:09.930Z,94869.31
2023-04-05T02:52:38.569Z,94874.41
2023-04-05T02:55:08.514Z,94869.66
2023-04-05T02:57:36.385Z,94880.50
2023-04-05T03:00:05.853Z,94871.00
2023-04-05T03:02:33.801Z,94880.00
2023-04-05T03:05:02.508Z,94872.59
2023-04-05T03:07:30.707Z,94880.00
2023-04-05T03:09:58.573Z,94869.91
2023-04-05T03:12:27.901Z,94875.41
2023-04-05T03:14:55.838Z,94879.38
2023-04-05T03:17:23.707Z,94879.94
2023-04-05T03:19:51.568Z,94881.63
2023-04-05T03:22:19.478Z,94871.00
2023-04-05T03:24:47.831Z,94872.03
2023-04-05T03:27:15.703Z,94874.97
2023-04-05T03:29:45.005Z,94882.66
2023-04-05T03:32:14.053Z,94879.47
2023-04-05T03:34:41.888Z,94885.81
2023-04-05T03:37:09.718Z,94871.47
2023-04-05T03:39:37.638Z,94881.56
2023-04-05T03:42:05.717Z,94851.47
2023-04-05T03:44:33.611Z,94885.03
2023-04-05T03:47:02.905Z,94897.44
2023-04-05T03:49:30.757Z,94887.38
2023-04-05T03:51:58.658Z,94891.69
2023-04-05T03:54:26.524Z,94888.22
2023-04-05T03:56:54.451Z,94895.13
2023-04-05T03:59:22.309Z,94892.69
2023-04-05T04:01:50.324Z,94898.50
2023-04-05T04:04:19.600Z,94894.25
2023-04-05T04:06:47.670Z,94908.72
2023-04-05T04:09:15.777Z,94918.56
2023-04-05T04:11:43.636Z,94915.38
2023-04-05T04:14:11.498Z,94916.78
2023-04-05T04:16:39.404Z,94922.63
2023-04-05T04:19:07.429Z,94900.91
2023-04-05T04:21:39.519Z,94915.94
2023-04-05T04:24:07.776Z,94909.03
2023-04-05T04:26:37.604Z,94917.28
2023-04-05T04:29:06.739Z,94916.22
2023-04-05T04:31:34.842Z,94917.50
2023-04-05T04:34:03.375Z,94911.66
2023-04-05T04:36:36.389Z,94909.84
2023-04-05T04:39:07.293Z,94902.59
2023-04-05T04:41:35.867Z,94921.94
2023-04-05T04:44:04.460Z,94907.13
2023-04-05T04:46:43.051Z,94899.69
2023-04-05T04:49:11.224Z,94909.94
2023-04-05T04:51:39.263Z,94916.53
2023-04-05T04:54:09.785Z,94913.34
2023-04-05T04:56:37.649Z,94911.22
2023-04-05T04:59:05.546Z,94918.94
2023-04-05T05:01:34.251Z,94923.34
2023-04-05T05:04:04.125Z,94917.47
2023-04-05T05:06:32.067Z,94923.00
2023-04-05T05:08:59.932Z,94915.31
2023-04-05T05:11:29.438Z,94920.16
2023-04-05T05:13:57.752Z,94913.25
2023-04-05T05:16:26.785Z,94919.66
2023-04-05T05:18:55.103Z,94918.94
2023-04-05T05:21:22.975Z,94924.00
2023-04-05T05:23:51.057Z,94925.53
2023-04-05T05:26:18.907Z,94933.50
2023-04-05T05:28:49.613Z,94910.91
2023-04-05T05:31:18.587Z,94925.28
2023-04-05T05:33:49.607Z,94940.94
2023-04-05T05:36:20.016Z,94942.19
2023-04-05T05:38:49.128Z,94930.59
2023-04-05T05:41:17.126Z,94935.06
2023-04-05T05:43:45.135Z,94931.91
2023-04-05T05:46:14.703Z,94928.91
2023-04-05T05:48:43.802Z,94931.69
2023-04-05T05:51:11.666Z,94894.97
2023-04-05T05:53:40.609Z,94885.16
2023-04-05T05:56:08.859Z,94931.72
2023-04-05T05:58:36.845Z,94921.31
2023-04-05T06:01:04.824Z,94904.94
2023-04-05T06:03:34.819Z,94908.16
2023-04-05T06:06:06.097Z,94918.28
2023-04-05T06:08:33.951Z,94928.03
2023-04-05T06:11:04.195Z,94891.41
2023-04-05T06:13:32.193Z,94932.44
2023-04-05T06:16:02.466Z,94932.84
2023-04-05T06:18:30.690Z,94939.59
2023-04-05T06:20:59.940Z,94938.09
2023-04-05T06:23:28.038Z,94933.75
2023-04-05T06:25:57.059Z,94930.94
2023-04-05T06:28:24.985Z,94947.38
2023-04-05T06:30:52.987Z,94940.00
2023-04-05T06:33:21.143Z,94945.25
2023-04-05T06:35:49.139Z,94949.53
2023-04-05T06:38:18.643Z,94946.75
2023-04-05T06:40:46.473Z,94934.13
2023-04-05T06:43:14.342Z,94934.94
2023-04-05T06:45:42.259Z,94958.94
2023-04-05T06:48:10.204Z,94952.63
2023-04-05T06:50:38.134Z,94949.84
2023-04-05T06:53:06.126Z,94964.63
2023-04-05T06:55:35.535Z,94969.41
2023-04-05T06:58:03.367Z,94973.28
2023-04-05T07:00:31.461Z,94967.22
2023-04-05T07:02:59.467Z,94983.84
2023-04-05T07:05:27.358Z,94981.09
2023-04-05T07:07:55.508Z,94980.03
2023-04-05T07:10:23.437Z,94983.94
2023-04-05T07:12:52.789Z,94983.28
2023-04-05T07:15:20.828Z,94982.91
2023-04-05T07:17:48.962Z,94974.50
2023-04-05T07:20:17.372Z,94992.91
2023-04-05T07:22:45.317Z,94985.06
2023-04-05T07:25:13.228Z,94987.72
2023-04-05T07:27:41.453Z,94989.75
2023-04-05T07:30:11.639Z,94995.00
2023-04-05T07:32:39.726Z,94997.00
2023-04-05T07:35:08.872Z,94955.06
2023-04-05T07:37:37.278Z,94956.94
2023-04-05T07:40:06.468Z,94953.50
2023-04-05T07:42:34.729Z,95008.88
2023-04-05T07:45:02.732Z,95011.53
2023-04-05T07:47:34.623Z,95006.28
2023-04-05T07:50:02.611Z,95017.28
2023-04-05T07:52:30.659Z,95014.97
2023-04-05T07:54:58.918Z,95015.69
2023-04-05T07:57:27.499Z,95019.72
2023-04-05T07:59:55.884Z,95024.75
2023-04-05T08:02:24.341Z,95024.25
2023-04-05T08:04:53.609Z,95029.53
2023-04-05T08:07:23.622Z,95031.88
2023-04-05T08:09:51.570Z,95023.84
2023-04-05T08:12:19.409Z,95035.78
2023-04-05T08:14:47.334Z,95024.78
2023-04-05T08:17:15.618Z,95026.63
2023-04-05T08:19:43.523Z,95044.78
2023-04-05T08:22:16.697Z,95035.56
2023-04-05T08:24:44.660Z,95044.91
2023-04-05T08:27:12.603Z,95044.84
2023-04-05T08:29:40.452Z,95051.81
2023-04-05T08:32:08.975Z,95058.22
2023-04-05T08:34:37.147Z,94996.38
2023-04-05T08:37:04.992Z,95049.84
2023-04-05T08:39:36.144Z,94984.03
2023-04-05T08:42:09.364Z,95050.75
2023-04-05T08:44:39.026Z,95054.72
2023-04-05T08:47:06.960Z,95054.53
2023-04-05T08:49:35.591Z,95053.53
2023-04-05T08:52:04.525Z,95043.22
2023-04-05T08:54:32.435Z,95027.16
2023-04-05T08:57:06.023Z,95058.41
2023-04-05T08:59:35.840Z,95067.22
2023-04-05T09:02:07.959Z,95071.47
2023-04-05T09:04:39.702Z,95073.84
2023-04-05T09:07:09.848Z,95077.22
2023-04-05T09:09:39.411Z,95030.28
2023-04-05T09:12:09.570Z,95079.13
2023-04-05T09:14:39.070Z,95029.25
2023-04-05T09:17:07.912Z,95082.66
2023-04-05T09:19:36.024Z,95081.28
2023-04-05T09:22:05.182Z,95036.78
2023-04-05T09:24:39.388Z,95081.34
2023-04-05T09:27:11.134Z,95081.69
2023-04-05T09:29:40.193Z,95078.69
2023-04-05T09:32:09.360Z,95036.16
2023-04-05T09:34:38.002Z,95073.19
2023-04-05T09:37:14.698Z,95076.00
2023-04-05T09:39:42.746Z,95016.41
2023-04-05T09:42:15.485Z,95073.19
2023-04-05T09:44:55.900Z,95069.84
2023-04-05T09:47:27.510Z,95066.50
2023-04-05T09:49:55.869Z,95064.34
2023-04-05T09:52:24.998Z,95056.72
2023-04-05T09:54:56.549Z,95054.59
2023-04-05T09:57:27.628Z,95053.13
2023-04-05T09:59:56.150Z,95060.13
2023-04-05T10:02:24.393Z,95033.50
2023-04-05T10:04:52.949Z,95065.81
2023-04-05T10:07:21.250Z,95064.34
2023-04-05T10:09:49.936Z,95043.44
2023-04-05T10:12:25.913Z,95076.25
2023-04-05T10:14:56.948Z,95011.47
2023-04-05T10:17:30.708Z,95072.38
2023-04-05T10:20:11.597Z,95063.47
2023-04-05T10:22:45.796Z,95052.88
2023-04-05T10:25:26.858Z,95053.34
2023-04-05T10:27:59.175Z,94998.50
2023-04-05T10:30:37.400Z,95064.31
2023-04-05T10:33:14.810Z,95062.91
2023-04-05T10:35:58.420Z,95056.84
2023-04-05T10:38:30.868Z,95062.88
2023-04-05T10:41:07.020Z,95060.50
2023-04-05T10:43:38.728Z,95062.69
2023-04-05T10:46:09.146Z,95064.53
2023-04-05T10:48:45.687Z,95067.09
2023-04-05T10:51:14.485Z,95084.19
2023-04-05T10:53:42.707Z,95071.84
2023-04-05T10:56:11.035Z,95064.50
2023-04-05T10:58:42.354Z,95082.00
2023-04-05T11:01:12.315Z,95063.75
2023-04-05T11:03:58.212Z,95068.88
2023-04-05T11:06:32.505Z,95081.91
2023-04-05T11:09:02.405Z,95075.03
2023-04-05T11:11:40.589Z,95085.69
2023-04-05T11:14:21.211Z,95043.56
2023-04-05T11:16:54.571Z,95081.00
2023-04-05T11:19:42.658Z,95058.19
2023-04-05T11:22:10.781Z,95075.19
2023-04-05T11:24:53.031Z,95075.38
2023-04-05T11:27:28.262Z,95024.94
2023-04-05T11:29:57.583Z,95068.34
2023-04-05T11:32:43.226Z,95071.41
2023-04-05T11:35:15.832Z,95050.66
2023-04-05T11:38:11.793Z,95079.56
2023-04-05T11:40:43.575Z,95056.03
2023-04-05T11:43:13.143Z,95050.84
2023-04-05T11:45:43.621Z,95063.78
2023-04-05T11:48:14.458Z,95059.66
2023-04-05T11:50:45.224Z,95058.66
2023-04-05T11:53:14.394Z,95066.91
2023-04-05T11:55:44.508Z,95033.38
2023-04-05T11:58:17.218Z,95072.13
2023-04-05T12:00:46.834Z,95055.69
2023-04-05T12:03:17.881Z,95064.97
2023-04-05T12:05:47.456Z,95009.94
2023-04-05T12:08:15.438Z,95074.00
2023-04-05T12:10:43.378Z,95071.28
2023-04-05T12:13:11.332Z,95069.00
2023-04-05T12:15:40.901Z,95071.81
2023-04-05T12:18:16.463Z,95077.72
2023-04-05T12:20:45.689Z,95072.22
2023-04-05T12:23:13.904Z,94906.13
2023-04-05T12:25:43.135Z,95076.09
2023-04-05T12:28:11.959Z,95076.47
2023-04-05T12:30:50.536Z,95064.34
2023-04-05T12:33:29.515Z,95064.63
2023-04-05T12:35:57.976Z,95066.13
2023-04-05T12:38:28.324Z,95070.38
2023-04-05T12:41:00.416Z,95072.59
2023-04-05T12:43:38.765Z,95002.94
2023-04-05T12:46:11.117Z,95075.44
2023-04-05T12:48:43.063Z,95068.50
2023-04-05T12:51:17.213Z,95078.22
2023-04-05T12:53:48.589Z,95034.47
2023-04-05T12:56:17.520Z,95072.34
2023-04-05T12:58:50.112Z,95076.91
2023-04-05T13:01:17.984Z,95084.75
2023-04-05T13:03:52.110Z,95075.84
2023-04-05T13:06:22.932Z,95078.03
2023-04-05T13:08:51.021Z,95083.50
2023-04-05T13:11:18.897Z,95076.41
2023-04-05T13:13:46.922Z,95077.25
2023-04-05T13:16:14.859Z,95082.09
2023-04-05T13:18:42.812Z,95073.38
2023-04-05T13:21:12.142Z,95024.94
2023-04-05T13:23:41.368Z,95067.63
2023-04-05T13:26:09.802Z,95052.81
2023-04-05T13:28:37.719Z,95051.66
2023-04-05T13:31:06.444Z,95062.25
2023-04-05T13:33:34.607Z,95070.41
2023-04-05T13:36:03.275Z,95058.66
2023-04-05T13:38:32.786Z,95062.66
2023-04-05T13:41:01.010Z,95072.03
2023-04-05T13:43:31.146Z,95056.75
2023-04-05T13:45:59.258Z,95074.91
2023-04-05T13:48:27.475Z,95063.94
2023-04-05T13:50:55.639Z,95072.28
2023-04-05T13:53:23.539Z,95074.91
2023-04-05T13:55:52.837Z,95088.38
2023-04-05T13:58:21.045Z,95080.38
2023-04-05T14:00:49.092Z,95079.25
2023-04-05T14:03:17.112Z,95093.84
2023-04-05T14:05:46.940Z,95079.53
2023-04-05T14:08:16.360Z,95076.03
2023-04-05T14:10:44.509Z,95089.50
2023-04-05T14:13:16.320Z,95099.84
2023-04-05T14:15:44.885Z,95097.19
2023-04-05T14:18:13.074Z,95107.00
2023-04-05T14:20:42.047Z,95108.25
2023-04-05T14:23:10.559Z,95088.78
2023-04-05T14:25:38.721Z,95100.16
2023-04-05T14:28:06.940Z,95105.59
2023-04-05T14:30:36.559Z,95106.28
2023-04-05T14:33:04.538Z,95105.41
2023-04-05T14:35:32.548Z,95062.81
2023-04-05T14:38:50.328Z,95109.22
2023-04-05T14:41:19.380Z,95119.00
2023-04-05T14:43:47.946Z,95111.13
2023-04-05T14:46:19.046Z,95116.81
2023-04-05T14:48:47.902Z,95120.34
2023-04-05T14:51:16.238Z,95110.03
2023-04-05T14:53:45.884Z,95114.59
2023-04-05T14:56:14.044Z,95125.16
2023-04-05T14:58:42.253Z,95063.84
2023-04-05T15:01:11.161Z,95138.00
2023-04-05T15:03:41.063Z,95128.13
2023-04-05T15:06:09.361Z,95105.31
2023-04-05T15:08:40.151Z,95140.31
2023-04-05T15:11:08.446Z,95141.72
2023-04-05T15:13:36.645Z,95120.47
2023-04-05T15:16:05.108Z,95100.50
2023-04-05T15:18:33.167Z,95140.88
2023-04-05T15:21:02.703Z,95137.91
2023-04-05T15:23:32.272Z,95148.13
2023-04-05T15:26:00.528Z,95153.53
2023-04-05T15:28:28.680Z,95146.38
2023-04-05T15:30:56.933Z,95146.81
2023-04-05T15:33:25.070Z,95003.81
2023-04-05T15:35:53.251Z,95143.59
2023-04-05T15:38:23.263Z,95145.44
2023-04-05T15:40:52.587Z,95161.22
2023-04-05T15:43:22.546Z,95136.94
2023-04-05T15:45:50.663Z,94984.75
2023-04-05T15:48:18.766Z,95154.94
2023-04-05T15:50:46.952Z,95169.53
2023-04-05T15:53:17.171Z,95161.00
2023-04-05T15:55:46.893Z,95151.94
2023-04-05T15:58:15.072Z,95073.66
2023-04-05T16:00:43.203Z,95134.91
2023-04-05T16:03:11.837Z,95165.41
2023-04-05T16:05:40.409Z,95153.72
2023-04-05T16:08:08.766Z,95156.28
2023-04-05T16:10:39.702Z,95157.88
2023-04-05T16:13:10.942Z,95144.63
2023-04-05T16:15:41.219Z,95144.44
2023-04-05T16:18:14.509Z,95165.91
2023-04-05T16:20:44.251Z,95153.19
2023-04-05T16:23:28.767Z,95143.16
2023-04-05T16:26:06.134Z,95165.41
2023-04-05T16:28:45.317Z,95155.38
2023-04-05T16:31:13.678Z,95156.22
2023-04-05T16:33:41.881Z,95125.94
2023-04-05T16:36:10.043Z,95157.06
2023-04-05T16:38:41.745Z,95141.50
2023-04-05T16:41:10.030Z,95145.63
2023-04-05T16:43:39.532Z,95168.41
2023-04-05T16:46:07.972Z,95160.38
2023-04-05T16:48:38.882Z,95141.81
2023-04-05T16:51:07.358Z,95134.66
2023-04-05T16:53:35.554Z,95155.59
2023-04-05T16:56:03.674Z,95080.84
2023-04-05T16:58:31.742Z,95163.03
2023-04-05T17:01:01.595Z,95153.50
2023-04-05T17:03:30.251Z,95155.69
2023-04-05T17:05:58.616Z,95104.75
2023-04-05T17:08:27.155Z,95160.31
2023-04-05T17:10:55.367Z,95151.03
2023-04-05T17:13:23.474Z,95129.81
2023-04-05T17:15:51.706Z,95119.03
2023-04-05T17:18:21.263Z,95169.72
2023-04-05T17:20:49.431Z,95152.22
2023-04-05T17:23:17.952Z,95183.00
2023-04-05T17:25:46.213Z,95131.66
2023-04-05T17:28:14.330Z,95172.63
2023-04-05T17:30:42.442Z,95171.88
2023-04-05T17:33:10.790Z,95192.09
2023-04-05T17:35:40.397Z,95159.00
2023-04-05T17:38:08.576Z,95178.88
2023-04-05T17:40:36.682Z,95173.59
2023-04-05T17:43:04.745Z,95185.16
2023-04-05T17:45:33.269Z,95183.56
2023-04-05T17:48:01.691Z,95182.25
2023-04-05T17:50:29.872Z,95186.00
2023-04-05T17:52:59.705Z,95194.81
2023-04-05T17:55:27.748Z,95194.03
2023-04-05T17:57:55.881Z,95194.34
2023-04-05T18:00:26.437Z,95176.75
2023-04-05T18:02:54.614Z,95206.50
2023-04-05T18:05:23.055Z,95192.97
2023-04-05T18:07:51.168Z,95197.97
2023-04-05T18:10:21.460Z,95196.19
2023-04-05T18:12:49.850Z,95195.91
2023-04-05T18:15:18.440Z,95198.09
2023-04-05T18:17:46.833Z,95211.91
2023-04-05T18:20:15.058Z,95195.72
2023-04-05T18:22:43.167Z,95200.44
2023-04-05T18:25:13.515Z,95203.41
2023-04-05T18:27:44.415Z,95200.19
2023-04-05T18:30:13.400Z,95192.28
2023-04-05T18:32:42.329Z,95198.13
2023-04-05T18:35:11.045Z,95207.66
2023-04-05T18:37:39.118Z,95187.25
2023-04-05T18:40:08.644Z,95207.38
2023-04-05T18:42:36.986Z,95193.91
2023-04-05T18:45:07.885Z,95183.88
2023-04-05T18:47:36.592Z,95212.44
2023-04-05T18:50:05.267Z,95212.97
2023-04-05T18:52:35.366Z,95210.84
2023-04-05T18:55:04.309Z,95212.19
2023-04-05T18:57:32.488Z,95214.09
2023-04-05T19:00:00.918Z,95221.03
2023-04-05T19:02:31.662Z,95217.03
2023-04-05T19:05:02.173Z,95221.81
2023-04-05T19:07:30.535Z,95214.13
2023-04-05T19:09:58.710Z,95212.03
2023-04-05T19:12:26.820Z,95223.47
2023-04-05T19:14:54.884Z,95219.53
2023-04-05T19:17:23.134Z,95218.72
2023-04-05T19:19:52.719Z,95219.53
2023-04-05T19:22:20.937Z,95213.16
2023-04-05T19:24:49.194Z,95224.34
2023-04-05T19:27:17.283Z,95223.84
2023-04-05T19:29:45.422Z,95223.84
2023-04-05T19:32:16.524Z,95214.56
2023-04-05T19:34:44.900Z,95221.19
2023-04-05T19:37:14.535Z,95207.41
2023-04-05T19:39:46.864Z,95214.31
2023-04-05T19:42:15.532Z,95198.69
2023-04-05T19:44:50.821Z,95207.44
2023-04-05T19:47:21.182Z,95213.56
2023-04-05T19:49:53.189Z,95195.78
2023-04-05T19:52:48.111Z,95184.13
2023-04-05T19:55:29.741Z,95194.75
2023-04-05T19:57:58.927Z,95195.56
2023-04-05T20:00:38.596Z,95197.41
2023-04-05T20:03:28.798Z,95197.41
2023-04-05T20:06:05.191Z,95205.66
2023-04-05T20:08:37.813Z,95193.72
2023-04-05T20:11:13.112Z,95195.06
2023-04-05T20:13:46.297Z,95123.91
2023-04-05T20:16:15.702Z,95144.31
2023-04-05T20:18:47.508Z,95187.66
2023-04-05T20:21:17.148Z,95004.13
2023-04-05T20:23:47.228Z,95193.50
2023-04-05T20:26:16.682Z,95199.06
2023-04-05T20:28:54.057Z,95206.50
2023-04-05T20:31:23.951Z,95156.97
2023-04-05T20:33:55.208Z,95066.28
2023-04-05T20:36:29.812Z,95200.66
2023-04-05T20:38:59.760Z,95211.53
2023-04-05T20:41:28.478Z,95217.09
2023-04-05T20:43:57.060Z,95205.44
2023-04-05T20:46:26.341Z,95207.00
2023-04-05T20:48:55.189Z,95215.22
2023-04-05T20:51:23.508Z,95200.63
2023-04-05T20:53:51.653Z,95213.34
2023-04-05T20:56:21.407Z,95210.19
2023-04-05T20:58:49.536Z,95206.22
2023-04-05T21:01:17.643Z,95214.97
2023-04-05T21:03:45.831Z,95205.97
2023-04-05T21:06:13.955Z,95204.66
2023-04-05T21:08:42.396Z,95172.38
2023-04-05T21:11:11.967Z,95148.56
2023-04-05T21:13:42.218Z,95215.53
2023-04-05T21:16:10.493Z,95163.13
2023-04-05T21:18:38.548Z,95211.53
2023-04-05T21:21:06.850Z,95217.13
2023-04-05T21:23:35.242Z,95216.84
2023-04-05T21:26:04.546Z,95221.09
2023-04-05T21:28:32.860Z,95198.06
2023-04-05T21:31:02.363Z,95213.41
2023-04-05T21:33:30.667Z,95199.91
2023-04-05T21:35:59.248Z,95197.53
2023-04-05T21:38:27.289Z,95213.41
2023-04-05T21:40:55.607Z,95200.69
2023-04-05T21:43:24.149Z,95213.94
2023-04-05T21:45:53.137Z,95218.16
2023-04-05T21:48:24.873Z,95213.41
2023-04-05T21:50:53.032Z,95221.38
2023-04-05T21:53:24.154Z,95208.63
2023-04-05T21:55:52.617Z,95175.78
2023-04-05T21:58:20.628Z,95180.78
2023-04-05T22:00:48.739Z,95202.50
2023-04-05T22:03:16.842Z,95175.44
2023-04-05T22:05:46.295Z,95157.47
2023-04-05T22:08:14.332Z,95160.06
2023-04-05T22:10:43.898Z,95180.97
2023-04-05T22:13:12.112Z,95196.34
2023-04-05T22:15:40.231Z,95190.22
2023-04-05T22:18:08.522Z,95185.72
2023-04-05T22:20:36.776Z,95192.03
2023-04-05T22:23:06.707Z,95185.13
2023-04-05T22:25:34.771Z,95183.53
2023-04-05T22:28:02.845Z,95160.22
2023-04-05T22:30:42.832Z,95169.19
2023-04-05T22:33:13.069Z,95182.47
2023-04-05T22:35:41.517Z,95165.25
2023-04-05T22:38:11.007Z,95130.63
2023-04-05T22:40:39.130Z,95146.00
2023-04-05T22:43:07.406Z,95166.66
2023-04-05T22:45:35.751Z,95151.84
2023-04-05T22:48:03.952Z,95170.16
2023-04-05T22:50:32.546Z,95171.22
2023-04-05T22:53:00.636Z,95172.56
2023-04-05T22:55:30.716Z,95133.16
2023-04-05T22:57:58.728Z,95173.66
2023-04-05T23:00:26.830Z,95171.84
2023-04-05T23:02:55.015Z,95160.94
2023-04-05T23:05:23.116Z,95161.53
2023-04-05T23:07:51.244Z,95163.66
2023-04-05T23:10:19.506Z,95161.00
2023-04-05T23:12:49.516Z,95072.09
2023-04-05T23:15:17.817Z,95149.59
2023-04-05T23:17:45.935Z,95142.97
2023-04-05T23:20:14.069Z,95145.88
2023-04-05T23:22:42.465Z,95141.66
2023-04-05T23:25:10.999Z,95159.41
2023-04-05T23:27:39.050Z,95150.41
2023-04-05T23:30:09.771Z,95122.84
2023-04-05T23:32:37.902Z,95138.16
2023-04-05T23:35:06.666Z,95135.50
2023-04-05T23:37:34.804Z,95132.81
2023-04-05T23:40:02.889Z,95077.75
2023-04-05T23:42:31.020Z,95124.88
2023-04-05T23:45:00.265Z,95066.13
2023-04-05T23:47:29.813Z,95091.56
2023-04-05T23:49:57.996Z,95123.28
2023-04-05T23:52:26.214Z,95108.19
2023-04-05T23:54:54.306Z,95104.75
2023-04-05T23:57:22.751Z,95096.56
2023-04-05T23:59:51.857Z,95106.31
